sensor_id;sensor_type;location;lat;lon;timestamp;temperature;humidity
45945;DHT22;31655;48.972;10.686;2024-01-15T08:00:01;-1.80;99.90
45945;DHT22;31655;48.972;10.686;2024-01-15T08:04:54;-1.80;99.90
45945;DHT22;31655;48.972;10.686;2024-01-15T08:43:51;-1.40;99.90
45945;DHT22;31655;48.972;10.686;2024-01-15T08:55:13;-1.40;99.90
45945;DHT22;31655;48.972;10.686;2024-01-15T09:38:36;-0.10;99.90
45945;DHT22;31655;48.972;10.686;2024-01-15T09:41:02;0.60;99.90
45945;DHT22;31655;48.972;10.686;2024-01-15T09:43:27;1.10;99.90
45945;DHT22;31655;48.972;10.686;2024-01-15T09:45:53;1.30;99.90
45945;DHT22;31655;48.972;10.686;2024-01-15T09:48:19;1.30;99.90
45945;DHT22;31655;48.972;10.686;2024-01-15T09:50:45;1.00;99.90
45945;DHT22;31655;48.972;10.686;2024-01-15T09:53:11;0.80;99.90
45945;DHT22;31655;48.972;10.686;2024-01-15T09:55:39;0.60;99.90
45945;DHT22;31655;48.972;10.686;2024-01-15T09:58:05;0.50;99.90
45945;DHT22;31655;48.972;10.686;2024-01-15T10:00:32;0.40;99.90
45945;DHT22;31655;48.972;10.686;2024-01-15T10:03:03;0.40;99.90
45945;DHT22;31655;48.972;10.686;2024-01-15T10:05:30;0.30;99.90
45945;DHT22;31655;48.972;10.686;2024-01-15T10:07:57;0.20;99.90
45945;DHT22;31655;48.972;10.686;2024-01-15T10:10:23;0.40;99.90
45945;DHT22;31655;48.972;10.686;2024-01-15T10:12:49;0.40;99.90
45945;DHT22;31655;48.972;10.686;2024-01-15T10:15:15;0.30;99.90
45945;DHT22;31655;48.972;10.686;2024-01-15T10:17:41;0.20;99.90
45945;DHT22;31655;48.972;10.686;2024-01-15T10:20:11;0.10;99.90
45945;DHT22;31655;48.972;10.686;2024-01-15T10:22:40;0.10;99.90
45945;DHT22;31655;48.972;10.686;2024-01-15T10:25:10;0.10;99.90
45945;DHT22;31655;48.972;10.686;2024-01-15T10:27:36;0.10;99.90
45945;DHT22;31655;48.972;10.686;2024-01-15T10:30:02;0.10;99.90
45945;DHT22;31655;48.972;10.686;2024-01-15T10:32:31;0.10;99.90
45945;DHT22;31655;48.972;10.686;2024-01-15T10:34:57;-0.10;99.90
45945;DHT22;31655;48.972;10.686;2024-01-15T10:37:25;-0.10;99.90
45945;DHT22;31655;48.972;10.686;2024-01-15T10:39:54;-0.10;99.90
45945;DHT22;31655;48.972;10.686;2024-01-15T10:42:21;-0.20;99.90
45945;DHT22;31655;48.972;10.686;2024-01-15T10:47:14;-0.40;99.90
45945;DHT22;31655;48.972;10.686;2024-01-15T10:49:44;-0.50;99.90
45945;DHT22;31655;48.972;10.686;2024-01-15T10:54:38;-0.40;99.90
45945;DHT22;31655;48.972;10.686;2024-01-15T10:57:05;-0.40;99.90
45945;DHT22;31655;48.972;10.686;2024-01-15T10:59:31;-0.50;99.90
45945;DHT22;31655;48.972;10.686;2024-01-15T11:01:58;-0.40;99.90
45945;DHT22;31655;48.972;10.686;2024-01-15T11:04:24;-0.30;99.90
45945;DHT22;31655;48.972;10.686;2024-01-15T11:06:53;-0.40;99.90
45945;DHT22;31655;48.972;10.686;2024-01-15T11:09:19;-0.30;99.90
45945;DHT22;31655;48.972;10.686;2024-01-15T11:11:46;-0.30;99.90
45945;DHT22;31655;48.972;10.686;2024-01-15T11:14:40;-0.30;99.90
45945;DHT22;31655;48.972;10.686;2024-01-15T11:17:09;-0.40;99.90
45945;DHT22;31655;48.972;10.686;2024-01-15T11:19:46;-0.40;99.90
45945;DHT22;31655;48.972;10.686;2024-01-15T11:27:42;-0.40;99.90
45945;DHT22;31655;48.972;10.686;2024-01-15T11:30:10;-0.30;99.90
45945;DHT22;31655;48.972;10.686;2024-01-15T11:32:38;-0.30;99.90
45945;DHT22;31655;48.972;10.686;2024-01-15T11:35:08;-0.20;99.90
45945;DHT22;31655;48.972;10.686;2024-01-15T11:40:37;-0.20;99.90
45945;DHT22;31655;48.972;10.686;2024-01-15T11:43:04;-0.20;99.90
45945;DHT22;31655;48.972;10.686;2024-01-15T11:45:30;-0.10;99.90
45945;DHT22;31655;48.972;10.686;2024-01-15T11:50:58;-0.20;99.90
45945;DHT22;31655;48.972;10.686;2024-01-15T11:53:36;-0.10;99.90
45945;DHT22;31655;48.972;10.686;2024-01-15T11:56:03;-0.10;99.90
45945;DHT22;31655;48.972;10.686;2024-01-15T11:58:31;0.00;99.90
45945;DHT22;31655;48.972;10.686;2024-01-15T12:01:00;2.20;99.90
45945;DHT22;31655;48.972;10.686;2024-01-15T12:03:25;-0.10;99.90
45945;DHT22;31655;48.972;10.686;2024-01-15T12:05:57;0.00;99.90
45945;DHT22;31655;48.972;10.686;2024-01-15T12:08:25;1.40;99.90
45945;DHT22;31655;48.972;10.686;2024-01-15T12:15:47;-0.20;99.90
45945;DHT22;31655;48.972;10.686;2024-01-15T12:18:15;0.10;99.90
45945;DHT22;31655;48.972;10.686;2024-01-15T12:20:42;-0.10;99.90
45945;DHT22;31655;48.972;10.686;2024-01-15T12:23:10;0.20;99.90
45945;DHT22;31655;48.972;10.686;2024-01-15T12:25:36;0.20;99.90
45945;DHT22;31655;48.972;10.686;2024-01-15T12:30:30;0.00;99.90
45945;DHT22;31655;48.972;10.686;2024-01-15T12:33:06;-0.10;99.90
45945;DHT22;31655;48.972;10.686;2024-01-15T12:38:02;-0.30;99.90
45945;DHT22;31655;48.972;10.686;2024-01-15T12:40:31;-0.30;99.90
45945;DHT22;31655;48.972;10.686;2024-01-15T12:42:58;-0.50;99.90
45945;DHT22;31655;48.972;10.686;2024-01-15T12:45:24;-0.60;99.90
45945;DHT22;31655;48.972;10.686;2024-01-15T12:47:49;-0.70;99.90
45945;DHT22;31655;48.972;10.686;2024-01-15T12:50:16;-0.70;99.90
45945;DHT22;31655;48.972;10.686;2024-01-15T12:52:42;-0.80;99.90
45945;DHT22;31655;48.972;10.686;2024-01-15T12:55:09;-0.90;99.90
45945;DHT22;31655;48.972;10.686;2024-01-15T12:57:35;-0.20;99.90
45945;DHT22;31655;48.972;10.686;2024-01-15T13:00:04;-0.90;99.90
45945;DHT22;31655;48.972;10.686;2024-01-15T13:02:33;-0.80;99.90
45945;DHT22;31655;48.972;10.686;2024-01-15T13:04:59;-1.00;99.90
45945;DHT22;31655;48.972;10.686;2024-01-15T13:07:25;-1.00;99.90
45945;DHT22;31655;48.972;10.686;2024-01-15T13:09:51;-1.00;99.90
45945;DHT22;31655;48.972;10.686;2024-01-15T13:12:19;-1.10;99.90
45945;DHT22;31655;48.972;10.686;2024-01-15T13:14:48;-1.10;99.90
45945;DHT22;31655;48.972;10.686;2024-01-15T13:17:14;-1.10;99.90
45945;DHT22;31655;48.972;10.686;2024-01-15T13:19:42;-1.00;99.90
45945;DHT22;31655;48.972;10.686;2024-01-15T13:22:08;-0.90;99.90
45945;DHT22;31655;48.972;10.686;2024-01-15T13:24:35;-0.80;99.90
45945;DHT22;31655;48.972;10.686;2024-01-15T13:27:02;-0.80;99.90
45945;DHT22;31655;48.972;10.686;2024-01-15T13:29:29;0.30;99.90
45945;DHT22;31655;48.972;10.686;2024-01-15T13:32:04;-0.80;99.90
45945;DHT22;31655;48.972;10.686;2024-01-15T13:34:32;-0.80;99.90
45945;DHT22;31655;48.972;10.686;2024-01-15T13:36:58;-0.80;99.90
45945;DHT22;31655;48.972;10.686;2024-01-15T13:39:24;-0.80;99.90
45945;DHT22;31655;48.972;10.686;2024-01-15T13:41:50;-0.80;99.90
45945;DHT22;31655;48.972;10.686;2024-01-15T13:44:15;-0.80;99.90
45945;DHT22;31655;48.972;10.686;2024-01-15T13:46:41;-0.90;99.90
45945;DHT22;31655;48.972;10.686;2024-01-15T13:49:07;-0.90;99.90
45945;DHT22;31655;48.972;10.686;2024-01-15T13:51:34;-0.90;99.90
45945;DHT22;31655;48.972;10.686;2024-01-15T13:54:00;-0.90;99.90
45945;DHT22;31655;48.972;10.686;2024-01-15T13:56:26;-2.00;99.90
45945;DHT22;31655;48.972;10.686;2024-01-15T13:58:56;-0.80;99.90
45945;DHT22;31655;48.972;10.686;2024-01-15T14:01:22;-0.90;99.90
45945;DHT22;31655;48.972;10.686;2024-01-15T14:03:47;-0.90;99.90
45945;DHT22;31655;48.972;10.686;2024-01-15T14:06:13;-1.90;99.90
45945;DHT22;31655;48.972;10.686;2024-01-15T14:08:38;-0.90;99.90
45945;DHT22;31655;48.972;10.686;2024-01-15T14:11:04;-0.90;99.90
45945;DHT22;31655;48.972;10.686;2024-01-15T14:13:32;-0.90;99.90
45945;DHT22;31655;48.972;10.686;2024-01-15T14:15:58;-0.80;99.90
45945;DHT22;31655;48.972;10.686;2024-01-15T14:18:26;-0.80;99.90
45945;DHT22;31655;48.972;10.686;2024-01-15T14:20:51;-0.80;99.90
45945;DHT22;31655;48.972;10.686;2024-01-15T14:23:19;-0.80;99.90
45945;DHT22;31655;48.972;10.686;2024-01-15T14:25:44;-0.90;99.90
45945;DHT22;31655;48.972;10.686;2024-01-15T14:28:10;-0.90;99.90
45945;DHT22;31655;48.972;10.686;2024-01-15T14:30:36;-0.90;99.90
45945;DHT22;31655;48.972;10.686;2024-01-15T14:33:01;-0.80;99.90
45945;DHT22;31655;48.972;10.686;2024-01-15T14:35:27;-0.80;99.90
45945;DHT22;31655;48.972;10.686;2024-01-15T14:37:52;-0.80;99.90
45945;DHT22;31655;48.972;10.686;2024-01-15T14:40:18;-0.80;99.90
45945;DHT22;31655;48.972;10.686;2024-01-15T14:42:44;-0.80;99.90
45945;DHT22;31655;48.972;10.686;2024-01-15T14:45:09;-0.80;99.90
45945;DHT22;31655;48.972;10.686;2024-01-15T14:47:37;-0.80;99.90
45945;DHT22;31655;48.972;10.686;2024-01-15T14:50:04;-0.80;99.90
45945;DHT22;31655;48.972;10.686;2024-01-15T14:52:30;-0.80;99.90
45945;DHT22;31655;48.972;10.686;2024-01-15T14:54:56;-0.90;99.90
45945;DHT22;31655;48.972;10.686;2024-01-15T14:57:21;-0.90;99.90
45945;DHT22;31655;48.972;10.686;2024-01-15T14:59:47;-0.80;99.90
45945;DHT22;31655;48.972;10.686;2024-01-15T15:02:12;-0.80;99.90
45945;DHT22;31655;48.972;10.686;2024-01-15T15:04:39;-0.80;99.90
45945;DHT22;31655;48.972;10.686;2024-01-15T15:07:04;-0.90;99.90
45945;DHT22;31655;48.972;10.686;2024-01-15T15:09:31;-0.80;99.90
45945;DHT22;31655;48.972;10.686;2024-01-15T15:11:57;-0.80;99.90
45945;DHT22;31655;48.972;10.686;2024-01-15T15:14:22;-0.80;99.90
45945;DHT22;31655;48.972;10.686;2024-01-15T15:16:48;-0.80;99.90
45945;DHT22;31655;48.972;10.686;2024-01-15T15:19:13;-0.90;99.90
45945;DHT22;31655;48.972;10.686;2024-01-15T15:21:39;-1.00;99.90
45945;DHT22;31655;48.972;10.686;2024-01-15T15:24:04;-1.10;99.90
45945;DHT22;31655;48.972;10.686;2024-01-15T15:26:30;-1.00;99.90
45945;DHT22;31655;48.972;10.686;2024-01-15T15:28:55;-1.10;99.90
45945;DHT22;31655;48.972;10.686;2024-01-15T15:31:21;-1.00;99.90
45945;DHT22;31655;48.972;10.686;2024-01-15T15:33:46;-1.00;99.90
45945;DHT22;31655;48.972;10.686;2024-01-15T15:36:12;-1.10;99.90
45945;DHT22;31655;48.972;10.686;2024-01-15T15:38:37;-1.50;99.90
45945;DHT22;31655;48.972;10.686;2024-01-15T15:41:03;-1.20;99.90
45945;DHT22;31655;48.972;10.686;2024-01-15T15:43:29;-1.20;99.90
45945;DHT22;31655;48.972;10.686;2024-01-15T15:45:57;-1.20;99.90
45945;DHT22;31655;48.972;10.686;2024-01-15T15:48:29;-1.30;99.90
45945;DHT22;31655;48.972;10.686;2024-01-15T15:50:56;-1.30;99.90
45945;DHT22;31655;48.972;10.686;2024-01-15T15:53:21;-1.20;99.90
45945;DHT22;31655;48.972;10.686;2024-01-15T15:55:47;-1.20;99.90
45945;DHT22;31655;48.972;10.686;2024-01-15T15:58:13;-1.30;99.90
45945;DHT22;31655;48.972;10.686;2024-01-15T16:00:38;-1.40;99.90
45945;DHT22;31655;48.972;10.686;2024-01-15T16:03:04;-1.30;99.90
45945;DHT22;31655;48.972;10.686;2024-01-15T16:05:30;-2.00;99.90
45945;DHT22;31655;48.972;10.686;2024-01-15T16:07:55;-1.30;99.90
45945;DHT22;31655;48.972;10.686;2024-01-15T16:10:21;-1.30;99.90
45945;DHT22;31655;48.972;10.686;2024-01-15T16:12:46;-1.30;99.90
45945;DHT22;31655;48.972;10.686;2024-01-15T16:15:22;-1.40;99.90
45945;DHT22;31655;48.972;10.686;2024-01-15T16:17:51;-1.40;99.90
45945;DHT22;31655;48.972;10.686;2024-01-15T16:20:17;-1.40;99.90
45945;DHT22;31655;48.972;10.686;2024-01-15T16:25:09;-1.40;99.90
45945;DHT22;31655;48.972;10.686;2024-01-15T16:30:06;-1.50;99.90
45945;DHT22;31655;48.972;10.686;2024-01-15T16:32:32;-1.60;99.90
45945;DHT22;31655;48.972;10.686;2024-01-15T16:34:57;-1.60;99.90
45945;DHT22;31655;48.972;10.686;2024-01-15T16:37:23;-1.60;99.90
45945;DHT22;31655;48.972;10.686;2024-01-15T16:39:48;-1.60;99.90
45945;DHT22;31655;48.972;10.686;2024-01-15T16:42:14;-1.60;99.90
45945;DHT22;31655;48.972;10.686;2024-01-15T16:44:39;-1.70;99.90
45945;DHT22;31655;48.972;10.686;2024-01-15T16:47:05;-1.60;99.90
45945;DHT22;31655;48.972;10.686;2024-01-15T16:49:31;-1.70;99.90
45945;DHT22;31655;48.972;10.686;2024-01-15T16:51:56;-1.70;99.90
45945;DHT22;31655;48.972;10.686;2024-01-15T16:54:22;-1.70;99.90
45945;DHT22;31655;48.972;10.686;2024-01-15T16:56:48;-1.70;99.90
45945;DHT22;31655;48.972;10.686;2024-01-15T16:59:14;-1.60;99.90
45945;DHT22;31655;48.972;10.686;2024-01-15T17:01:40;-1.70;99.90
45945;DHT22;31655;48.972;10.686;2024-01-15T17:04:05;-1.60;99.90
45945;DHT22;31655;48.972;10.686;2024-01-15T17:06:31;-1.70;99.90
45945;DHT22;31655;48.972;10.686;2024-01-15T17:08:57;-1.70;99.90
45945;DHT22;31655;48.972;10.686;2024-01-15T17:11:22;-1.70;99.90
45945;DHT22;31655;48.972;10.686;2024-01-15T17:13:52;-1.70;99.90
45945;DHT22;31655;48.972;10.686;2024-01-15T17:16:19;-1.70;99.90
45945;DHT22;31655;48.972;10.686;2024-01-15T17:18:45;-1.70;99.90
45945;DHT22;31655;48.972;10.686;2024-01-15T17:21:10;-1.60;99.90
45945;DHT22;31655;48.972;10.686;2024-01-15T17:23:36;-1.60;99.90
45945;DHT22;31655;48.972;10.686;2024-01-15T17:26:03;-1.60;99.90
45945;DHT22;31655;48.972;10.686;2024-01-15T17:28:30;-1.60;99.90
45945;DHT22;31655;48.972;10.686;2024-01-15T17:30:55;-1.70;99.90
45945;DHT22;31655;48.972;10.686;2024-01-15T17:33:21;-1.70;99.90
45945;DHT22;31655;48.972;10.686;2024-01-15T17:35:54;-1.70;99.90
45945;DHT22;31655;48.972;10.686;2024-01-15T17:38:33;-1.70;99.90
45945;DHT22;31655;48.972;10.686;2024-01-15T17:40:59;-1.80;99.90
45945;DHT22;31655;48.972;10.686;2024-01-15T17:45:51;-1.70;99.90
45945;DHT22;31655;48.972;10.686;2024-01-15T17:50:45;-1.80;99.90
45945;DHT22;31655;48.972;10.686;2024-01-15T17:55:37;-1.90;99.90
45945;DHT22;31655;48.972;10.686;2024-01-15T17:58:03;-2.30;99.90
45945;DHT22;31655;48.972;10.686;2024-01-15T18:00:29;-2.10;99.90
45945;DHT22;31655;48.972;10.686;2024-01-15T18:05:27;-2.20;99.90
45945;DHT22;31655;48.972;10.686;2024-01-15T18:07:52;-2.30;99.90
45945;DHT22;31655;48.972;10.686;2024-01-15T18:10:18;-2.40;99.90
45945;DHT22;31655;48.972;10.686;2024-01-15T18:17:36;-2.40;99.90
45945;DHT22;31655;48.972;10.686;2024-01-15T18:20:02;-2.50;99.90
45945;DHT22;31655;48.972;10.686;2024-01-15T18:22:30;-2.50;99.90
45945;DHT22;31655;48.972;10.686;2024-01-15T18:24:55;-2.70;99.90
45945;DHT22;31655;48.972;10.686;2024-01-15T18:27:21;-2.60;99.90
45945;DHT22;31655;48.972;10.686;2024-01-15T18:29:47;-2.60;99.90
45945;DHT22;31655;48.972;10.686;2024-01-15T18:32:12;-2.50;99.90
45945;DHT22;31655;48.972;10.686;2024-01-15T18:37:05;-2.20;99.90
45945;DHT22;31655;48.972;10.686;2024-01-15T18:41:57;-2.10;99.90
45945;DHT22;31655;48.972;10.686;2024-01-15T18:44:23;-2.30;99.90
45945;DHT22;31655;48.972;10.686;2024-01-15T18:49:15;-2.10;99.90
45945;DHT22;31655;48.972;10.686;2024-01-15T18:51:41;-2.20;99.90
45945;DHT22;31655;48.972;10.686;2024-01-15T18:54:08;-2.10;99.90
45945;DHT22;31655;48.972;10.686;2024-01-15T18:56:40;-2.10;99.90
45945;DHT22;31655;48.972;10.686;2024-01-15T18:59:05;-2.30;99.90
45945;DHT22;31655;48.972;10.686;2024-01-15T19:01:32;-2.20;99.90
45945;DHT22;31655;48.972;10.686;2024-01-15T19:03:58;-2.20;99.90
45945;DHT22;31655;48.972;10.686;2024-01-15T19:06:24;-2.30;99.90
45945;DHT22;31655;48.972;10.686;2024-01-15T19:08:51;-2.20;99.90
45945;DHT22;31655;48.972;10.686;2024-01-15T19:11:18;-2.20;99.90
45945;DHT22;31655;48.972;10.686;2024-01-15T19:18:36;-2.20;99.90
45945;DHT22;31655;48.972;10.686;2024-01-15T19:23:29;-2.20;99.90
45945;DHT22;31655;48.972;10.686;2024-01-15T19:25:54;-2.10;99.90
45945;DHT22;31655;48.972;10.686;2024-01-15T19:28:20;-2.10;99.90
45945;DHT22;31655;48.972;10.686;2024-01-15T19:35:41;-2.00;99.90
45945;DHT22;31655;48.972;10.686;2024-01-15T19:38:06;-2.00;99.90
45945;DHT22;31655;48.972;10.686;2024-01-15T19:40:32;-1.90;99.90
45945;DHT22;31655;48.972;10.686;2024-01-15T19:42:58;-2.00;99.90
45945;DHT22;31655;48.972;10.686;2024-01-15T19:45:25;-1.90;99.90
45945;DHT22;31655;48.972;10.686;2024-01-15T19:47:54;-2.00;99.90
45945;DHT22;31655;48.972;10.686;2024-01-15T19:50:24;-2.20;99.90
45945;DHT22;31655;48.972;10.686;2024-01-15T19:52:49;-2.00;99.90
45945;DHT22;31655;48.972;10.686;2024-01-15T19:55:15;-2.00;99.90
45945;DHT22;31655;48.972;10.686;2024-01-15T20:00:08;-2.00;99.90
45945;DHT22;31655;48.972;10.686;2024-01-15T20:02:34;-1.90;99.90
45945;DHT22;31655;48.972;10.686;2024-01-15T20:05:00;-2.20;99.90
45945;DHT22;31655;48.972;10.686;2024-01-15T20:07:27;-2.00;99.90
45945;DHT22;31655;48.972;10.686;2024-01-15T20:09:52;-2.00;99.90
45945;DHT22;31655;48.972;10.686;2024-01-15T20:25:10;-2.00;99.90
45945;DHT22;31655;48.972;10.686;2024-01-15T20:40:54;-2.00;99.90
45945;DHT22;31655;48.972;10.686;2024-01-15T20:43:20;-2.00;99.90
45945;DHT22;31655;48.972;10.686;2024-01-15T20:45:45;-2.00;99.90
45945;DHT22;31655;48.972;10.686;2024-01-15T20:50:47;-2.00;99.90
45945;DHT22;31655;48.972;10.686;2024-01-15T20:53:13;-2.10;99.90
45945;DHT22;31655;48.972;10.686;2024-01-15T20:55:38;-2.00;99.90
45945;DHT22;31655;48.972;10.686;2024-01-15T21:08:19;-2.00;99.90
45945;DHT22;31655;48.972;10.686;2024-01-15T21:10:45;-2.00;99.90
45945;DHT22;31655;48.972;10.686;2024-01-15T21:13:10;-2.00;99.90
45945;DHT22;31655;48.972;10.686;2024-01-15T21:15:36;-2.00;99.90
45945;DHT22;31655;48.972;10.686;2024-01-15T21:18:01;-2.00;99.90
45945;DHT22;31655;48.972;10.686;2024-01-15T21:22:54;-2.00;99.90
45945;DHT22;31655;48.972;10.686;2024-01-15T21:25:20;-2.00;99.90
45945;DHT22;31655;48.972;10.686;2024-01-15T21:27:46;-2.00;99.90
45945;DHT22;31655;48.972;10.686;2024-01-15T21:30:12;-2.00;99.90
45945;DHT22;31655;48.972;10.686;2024-01-15T21:32:40;-1.90;99.90
45945;DHT22;31655;48.972;10.686;2024-01-15T21:35:06;-2.00;99.90
45945;DHT22;31655;48.972;10.686;2024-01-15T21:37:32;-1.90;99.90
45945;DHT22;31655;48.972;10.686;2024-01-15T21:39:57;-1.90;99.90
45945;DHT22;31655;48.972;10.686;2024-01-15T21:42:23;-2.00;99.90
45945;DHT22;31655;48.972;10.686;2024-01-15T21:44:48;-2.00;99.90
45945;DHT22;31655;48.972;10.686;2024-01-15T21:47:14;-2.10;99.90
45945;DHT22;31655;48.972;10.686;2024-01-15T21:49:39;-2.10;99.90
45945;DHT22;31655;48.972;10.686;2024-01-15T21:52:06;-2.00;99.90
45945;DHT22;31655;48.972;10.686;2024-01-15T21:54:32;-2.10;99.90
45945;DHT22;31655;48.972;10.686;2024-01-15T21:56:57;-2.00;99.90
45945;DHT22;31655;48.972;10.686;2024-01-15T21:59:23;-2.00;99.90
45945;DHT22;31655;48.972;10.686;2024-01-15T22:01:50;-2.00;99.90
45945;DHT22;31655;48.972;10.686;2024-01-15T22:04:23;-2.00;99.90
45945;DHT22;31655;48.972;10.686;2024-01-15T22:06:49;-0.60;99.90
45945;DHT22;31655;48.972;10.686;2024-01-15T22:09:21;-2.00;99.90
45945;DHT22;31655;48.972;10.686;2024-01-15T22:12:10;-2.10;99.90
45945;DHT22;31655;48.972;10.686;2024-01-15T22:14:36;-2.10;99.90
45945;DHT22;31655;48.972;10.686;2024-01-15T22:17:01;-2.10;99.90
45945;DHT22;31655;48.972;10.686;2024-01-15T22:19:27;-2.10;99.90
45945;DHT22;31655;48.972;10.686;2024-01-15T22:21:53;-2.00;99.90
45945;DHT22;31655;48.972;10.686;2024-01-15T22:24:18;-2.00;99.90
45945;DHT22;31655;48.972;10.686;2024-01-15T22:26:44;-2.10;99.90
45945;DHT22;31655;48.972;10.686;2024-01-15T22:29:09;-2.10;99.90
45945;DHT22;31655;48.972;10.686;2024-01-15T22:31:35;-2.10;99.90
45945;DHT22;31655;48.972;10.686;2024-01-15T22:34:00;-2.10;99.90
45945;DHT22;31655;48.972;10.686;2024-01-15T22:36:26;-2.10;99.90
45945;DHT22;31655;48.972;10.686;2024-01-15T22:38:52;-2.10;99.90
45945;DHT22;31655;48.972;10.686;2024-01-15T22:41:17;-2.10;99.90
45945;DHT22;31655;48.972;10.686;2024-01-15T22:43:43;-2.10;99.90
45945;DHT22;31655;48.972;10.686;2024-01-15T22:46:09;-2.10;99.90
45945;DHT22;31655;48.972;10.686;2024-01-15T22:48:35;-2.10;99.90
45945;DHT22;31655;48.972;10.686;2024-01-15T22:51:01;-2.10;99.90
45945;DHT22;31655;48.972;10.686;2024-01-15T22:53:27;-2.00;99.90
45945;DHT22;31655;48.972;10.686;2024-01-15T22:55:53;-2.10;99.90
45945;DHT22;31655;48.972;10.686;2024-01-15T22:58:19;-2.10;99.90
45945;DHT22;31655;48.972;10.686;2024-01-15T23:00:44;-2.10;99.90
45945;DHT22;31655;48.972;10.686;2024-01-15T23:03:11;-2.10;99.90
45945;DHT22;31655;48.972;10.686;2024-01-15T23:05:37;-2.10;99.90
45945;DHT22;31655;48.972;10.686;2024-01-15T23:08:03;-2.20;99.90
45945;DHT22;31655;48.972;10.686;2024-01-15T23:10:28;-2.10;99.90
45945;DHT22;31655;48.972;10.686;2024-01-15T23:12:54;-2.10;99.90
45945;DHT22;31655;48.972;10.686;2024-01-15T23:15:20;-2.10;99.90
45945;DHT22;31655;48.972;10.686;2024-01-15T23:17:48;-2.20;99.90
45945;DHT22;31655;48.972;10.686;2024-01-15T23:20:14;-2.20;99.90
45945;DHT22;31655;48.972;10.686;2024-01-15T23:22:39;-2.10;99.90
45945;DHT22;31655;48.972;10.686;2024-01-15T23:25:05;-2.10;99.90
45945;DHT22;31655;48.972;10.686;2024-01-15T23:27:31;-2.20;99.90
45945;DHT22;31655;48.972;10.686;2024-01-15T23:29:56;-2.20;99.90
45945;DHT22;31655;48.972;10.686;2024-01-15T23:32:23;-2.20;99.90
45945;DHT22;31655;48.972;10.686;2024-01-15T23:34:48;-2.20;99.90
45945;DHT22;31655;48.972;10.686;2024-01-15T23:37:14;-2.20;99.90
45945;DHT22;31655;48.972;10.686;2024-01-15T23:39:40;-2.20;99.90
45945;DHT22;31655;48.972;10.686;2024-01-15T23:42:05;-2.20;99.90
